createdAt,value
2019-02-17T00:00:01.782Z,95.14
2019-02-17T00:02:31.118Z,95.32
2019-02-17T00:05:00.471Z,95.12
2019-02-17T00:07:29.820Z,95.18
2019-02-17T00:09:59.300Z,95.39
2019-02-17T00:12:28.604Z,95.36
2019-02-17T00:14:57.907Z,95.23
2019-02-17T00:17:27.821Z,95.26
2019-02-17T00:19:57.085Z,95.13
2019-02-17T00:22:26.411Z,95.09
2019-02-17T00:24:56.074Z,95.33
2019-02-17T00:27:25.440Z,95.00
2019-02-17T00:29:54.785Z,95.11
2019-02-17T00:32:24.214Z,95.23
2019-02-17T00:34:53.517Z,95.22
2019-02-17T00:37:22.835Z,95.52
2019-02-17T00:39:52.416Z,95.33
2019-02-17T00:42:21.764Z,95.46
2019-02-17T00:44:51.097Z,95.45
2019-02-17T00:47:20.493Z,95.43
2019-02-17T00:49:49.872Z,95.43
2019-02-17T00:52:19.512Z,95.38
2019-02-17T00:54:49.662Z,95.42
2019-02-17T00:57:18.963Z,95.37
2019-02-17T00:59:48.348Z,95.50
2019-02-17T01:02:17.848Z,95.54
2019-02-17T01:04:47.117Z,95.78
2019-02-17T01:07:16.413Z,95.87
2019-02-17T01:09:45.951Z,95.99
2019-02-17T01:12:15.279Z,95.85
2019-02-17T01:14:44.583Z,95.83
2019-02-17T01:17:14.323Z,95.95
2019-02-17T01:19:43.767Z,95.93
2019-02-17T01:22:13.091Z,96.18
2019-02-17T01:24:42.498Z,96.11
2019-02-17T01:27:11.806Z,96.09
2019-02-17T01:29:41.100Z,96.02
2019-02-17T01:32:10.580Z,95.97
2019-02-17T01:34:39.998Z,96.29
2019-02-17T01:37:09.341Z,96.34
2019-02-17T01:39:38.939Z,96.26
2019-02-17T01:42:08.283Z,96.26
2019-02-17T01:44:37.534Z,96.08
2019-02-17T01:47:06.984Z,96.08
2019-02-17T01:49:36.276Z,96.10
2019-02-17T01:52:05.646Z,96.06
2019-02-17T01:54:35.041Z,95.97
2019-02-17T01:57:04.416Z,95.85
2019-02-17T01:59:33.751Z,95.78
2019-02-17T02:02:03.342Z,95.63
2019-02-17T02:04:32.635Z,95.58
2019-02-17T02:07:01.980Z,95.56
2019-02-17T02:09:31.300Z,95.56
2019-02-17T02:12:00.603Z,95.58
2019-02-17T02:14:29.968Z,95.70
2019-02-17T02:16:59.475Z,95.91
2019-02-17T02:19:28.743Z,95.94
2019-02-17T02:21:58.045Z,95.94
2019-02-17T02:24:27.489Z,96.00
2019-02-17T02:26:56.859Z,96.11
2019-02-17T02:29:26.225Z,96.10
2019-02-17T02:31:55.505Z,96.08
2019-02-17T02:34:24.796Z,96.16
2019-02-17T02:36:54.047Z,96.28
2019-02-17T02:39:23.334Z,96.15
2019-02-17T02:41:52.730Z,96.15
2019-02-17T02:44:22.096Z,96.29
2019-02-17T02:46:51.553Z,96.16
2019-02-17T02:49:20.910Z,96.30
2019-02-17T02:51:50.237Z,96.29
2019-02-17T02:54:19.765Z,96.25
2019-02-17T02:56:49.062Z,96.19
2019-02-17T02:59:18.343Z,96.14
2019-02-17T03:01:47.716Z,96.13
2019-02-17T03:04:17.094Z,96.23
2019-02-17T03:06:55.357Z,96.30
2019-02-17T03:09:24.772Z,96.28
2019-02-17T03:11:54.050Z,96.19
2019-02-17T03:14:23.336Z,96.36
2019-02-17T03:16:52.624Z,96.43
2019-02-17T03:19:21.920Z,96.44
2019-02-17T03:21:51.497Z,96.37
2019-02-17T03:24:20.854Z,96.27
2019-02-17T03:26:50.154Z,96.42
2019-02-17T03:29:19.694Z,96.66
2019-02-17T03:31:48.998Z,96.74
2019-02-17T03:34:18.271Z,96.89
2019-02-17T03:36:47.740Z,96.85
2019-02-17T03:39:17.143Z,96.84
2019-02-17T03:41:46.467Z,96.83
2019-02-17T03:44:15.975Z,96.83
2019-02-17T03:46:45.249Z,96.76
2019-02-17T03:49:14.535Z,96.69
2019-02-17T03:51:44.000Z,96.68
2019-02-17T03:54:13.321Z,96.74
2019-02-17T03:56:42.692Z,96.79
2019-02-17T03:59:12.205Z,96.79
2019-02-17T04:01:41.462Z,96.82
2019-02-17T04:04:10.792Z,96.72
2019-02-17T04:06:40.084Z,96.64
2019-02-17T04:09:09.837Z,96.66
2019-02-17T04:11:39.144Z,96.67
2019-02-17T04:14:08.494Z,96.74
2019-02-17T04:16:37.838Z,96.93
2019-02-17T04:19:07.244Z,97.01
2019-02-17T04:21:36.687Z,96.91
2019-02-17T04:24:05.971Z,96.78
2019-02-17T04:26:35.231Z,96.65
2019-02-17T04:29:04.525Z,96.56
2019-02-17T04:31:33.864Z,96.50
2019-02-17T04:34:03.280Z,96.52
2019-02-17T04:36:33.058Z,96.69
2019-02-17T04:39:02.377Z,97.04
2019-02-17T04:41:31.667Z,97.18
2019-02-17T04:44:01.084Z,97.24
2019-02-17T04:46:30.441Z,97.27
2019-02-17T04:48:59.762Z,97.26
2019-02-17T04:51:29.228Z,97.25
2019-02-17T04:53:58.551Z,97.32
2019-02-17T04:56:27.920Z,97.38
2019-02-17T04:58:57.402Z,97.39
2019-02-17T05:01:26.696Z,97.47
2019-02-17T05:03:56.002Z,97.47
2019-02-17T05:06:25.555Z,97.46
2019-02-17T05:08:54.810Z,97.47
2019-02-17T05:11:24.101Z,97.47
2019-02-17T05:13:53.675Z,97.48
2019-02-17T05:16:23.004Z,97.45
2019-02-17T05:18:52.416Z,97.44
2019-02-17T05:21:21.741Z,97.44
2019-02-17T05:23:50.995Z,97.44
2019-02-17T05:26:20.249Z,97.44
2019-02-17T05:28:49.811Z,97.43
2019-02-17T05:31:19.173Z,97.41
2019-02-17T05:33:48.494Z,97.35
2019-02-17T05:36:18.162Z,97.25
2019-02-17T05:38:47.523Z,97.22
2019-02-17T05:41:16.780Z,97.16
2019-02-17T05:43:46.278Z,97.18
2019-02-17T05:46:15.574Z,97.19
2019-02-17T05:48:44.835Z,97.16
2019-02-17T05:51:14.406Z,97.12
2019-02-17T05:53:43.746Z,97.18
2019-02-17T05:56:13.086Z,97.10
2019-02-17T05:58:42.636Z,97.09
2019-02-17T06:01:11.940Z,97.08
2019-02-17T06:03:41.230Z,97.08
2019-02-17T06:06:10.765Z,97.05
2019-02-17T06:08:40.065Z,97.10
2019-02-17T06:11:09.676Z,97.10
2019-02-17T06:13:39.159Z,97.12
2019-02-17T06:16:08.453Z,97.16
2019-02-17T06:18:37.760Z,97.22
2019-02-17T06:21:07.380Z,97.22
2019-02-17T06:23:36.697Z,97.23
2019-02-17T06:26:06.039Z,97.27
2019-02-17T06:28:35.570Z,97.29
2019-02-17T06:31:14.024Z,97.28
2019-02-17T06:33:36.010Z,97.29
2019-02-17T06:36:05.320Z,97.28
2019-02-17T06:38:34.571Z,97.23
2019-02-17T06:41:04.083Z,97.24
2019-02-17T06:43:33.472Z,97.28
2019-02-17T06:46:03.102Z,97.30
2019-02-17T06:48:32.545Z,97.35
2019-02-17T06:51:01.804Z,97.41
2019-02-17T06:53:31.114Z,97.39
2019-02-17T06:56:15.255Z,97.41
2019-02-17T06:58:44.521Z,97.44
2019-02-17T07:01:24.152Z,97.45
2019-02-17T07:03:45.111Z,97.43
2019-02-17T07:06:23.321Z,97.37
2019-02-17T07:08:52.808Z,97.40
2019-02-17T07:11:23.436Z,97.40
2019-02-17T07:13:52.801Z,97.40
2019-02-17T07:16:23.438Z,97.37
2019-02-17T07:18:52.826Z,97.40
2019-02-17T07:21:22.136Z,97.35
2019-02-17T07:23:51.662Z,97.39
2019-02-17T07:26:21.107Z,97.38
2019-02-17T07:28:50.484Z,97.40
2019-02-17T07:31:22.425Z,97.41
2019-02-17T07:33:51.091Z,97.45
2019-02-17T07:36:22.145Z,97.49
2019-02-17T07:38:51.554Z,97.51
2019-02-17T07:41:20.821Z,97.54
2019-02-17T07:43:50.218Z,97.65
2019-02-17T07:46:19.784Z,97.54
2019-02-17T07:48:49.063Z,97.53
2019-02-17T07:51:18.366Z,97.57
2019-02-17T07:53:47.977Z,97.51
2019-02-17T07:56:17.362Z,97.53
2019-02-17T07:58:46.706Z,97.54
2019-02-17T08:01:16.100Z,97.53
2019-02-17T08:03:45.366Z,97.50
2019-02-17T08:06:14.616Z,97.48
2019-02-17T08:08:44.186Z,97.48
2019-02-17T08:11:13.518Z,97.54
2019-02-17T08:13:42.868Z,97.51
2019-02-17T08:16:12.408Z,97.52
2019-02-17T08:18:41.712Z,97.56
2019-02-17T08:21:10.982Z,97.54
2019-02-17T08:23:40.364Z,97.56
2019-02-17T08:26:09.731Z,97.44
2019-02-17T08:28:39.057Z,97.47
2019-02-17T08:31:08.332Z,97.48
2019-02-17T08:33:37.724Z,97.51
2019-02-17T08:36:07.022Z,97.35
2019-02-17T08:38:36.617Z,97.41
2019-02-17T08:41:05.985Z,97.42
2019-02-17T08:43:35.277Z,97.27
2019-02-17T08:46:04.709Z,97.20
2019-02-17T08:48:34.002Z,97.00
2019-02-17T08:51:03.393Z,96.66
2019-02-17T08:53:32.982Z,96.40
2019-02-17T08:56:02.278Z,95.72
2019-02-17T08:58:31.596Z,95.71
2019-02-17T09:01:01.074Z,95.79
2019-02-17T09:03:31.443Z,95.45
2019-02-17T09:06:00.747Z,94.58
2019-02-17T09:08:30.243Z,94.19
2019-02-17T09:10:59.628Z,93.62
2019-02-17T09:13:28.937Z,93.94
2019-02-17T09:15:58.312Z,92.66
2019-02-17T09:18:27.583Z,92.23
2019-02-17T09:20:56.883Z,91.73
2019-02-17T09:23:26.406Z,90.83
2019-02-17T09:25:55.792Z,90.61
2019-02-17T09:28:25.169Z,91.14
2019-02-17T09:30:54.578Z,91.02
2019-02-17T09:33:23.915Z,89.12
2019-02-17T09:35:53.365Z,88.87
2019-02-17T09:38:22.850Z,87.92
2019-02-17T09:40:52.229Z,87.90
2019-02-17T09:43:21.489Z,87.85
2019-02-17T09:45:50.840Z,87.86
2019-02-17T09:48:20.287Z,87.39
2019-02-17T09:50:49.624Z,87.74
2019-02-17T09:53:18.883Z,87.70
2019-02-17T09:55:48.280Z,88.50
2019-02-17T09:58:17.652Z,86.90
2019-02-17T10:00:47.239Z,86.97
2019-02-17T10:03:16.630Z,87.44
2019-02-17T10:05:45.988Z,86.58
2019-02-17T10:08:15.270Z,87.06
2019-02-17T10:10:44.544Z,87.16
2019-02-17T10:13:13.920Z,87.06
2019-02-17T10:15:43.216Z,87.17
2019-02-17T10:18:12.589Z,85.33
2019-02-17T10:20:42.219Z,84.99
2019-02-17T10:23:11.662Z,84.29
2019-02-17T10:25:41.064Z,82.74
2019-02-17T10:28:10.392Z,82.55
2019-02-17T10:30:39.707Z,82.27
2019-02-17T10:33:09.013Z,82.13
2019-02-17T10:35:40.430Z,82.86
2019-02-17T10:38:09.622Z,80.92
2019-02-17T10:40:38.953Z,80.69
2019-02-17T10:43:08.344Z,80.43
2019-02-17T10:45:37.690Z,79.10
2019-02-17T10:48:07.102Z,79.31
2019-02-17T10:50:36.383Z,79.47
2019-02-17T10:53:05.867Z,78.54
2019-02-17T10:55:35.157Z,78.51
2019-02-17T10:58:04.522Z,78.09
2019-02-17T11:00:34.055Z,76.77
2019-02-17T11:03:08.336Z,76.92
2019-02-17T11:05:37.947Z,77.67
2019-02-17T11:08:07.282Z,77.10
2019-02-17T11:10:36.629Z,77.31
2019-02-17T11:13:06.214Z,78.02
2019-02-17T11:15:35.570Z,78.15
2019-02-17T11:18:04.882Z,78.16
2019-02-17T11:20:34.312Z,78.72
2019-02-17T11:23:03.658Z,78.79
2019-02-17T11:25:32.997Z,78.80
2019-02-17T11:28:02.603Z,78.09
2019-02-17T11:30:31.877Z,78.36
2019-02-17T11:33:01.271Z,78.06
2019-02-17T11:35:30.718Z,78.22
2019-02-17T11:38:00.010Z,77.90
2019-02-17T11:40:29.316Z,78.20
2019-02-17T11:42:58.831Z,78.47
2019-02-17T11:45:28.575Z,78.63
2019-02-17T11:47:57.896Z,78.61
2019-02-17T11:50:27.339Z,78.72
2019-02-17T11:52:56.689Z,79.10
2019-02-17T11:55:25.978Z,79.38
2019-02-17T11:57:55.393Z,79.94
2019-02-17T12:00:24.711Z,80.04
2019-02-17T12:02:54.020Z,80.32
2019-02-17T12:05:23.350Z,79.17
2019-02-17T12:07:52.669Z,79.95
2019-02-17T12:10:22.012Z,79.94
2019-02-17T12:12:51.395Z,80.30
2019-02-17T12:15:20.733Z,79.84
2019-02-17T12:17:49.991Z,80.09
2019-02-17T12:20:54.209Z,79.97
2019-02-17T12:23:44.860Z,79.24
2019-02-17T12:26:41.987Z,79.62
2019-02-17T12:29:20.723Z,79.97
2019-02-17T12:31:50.090Z,78.70
2019-02-17T12:34:19.418Z,77.85
2019-02-17T12:36:48.695Z,76.71
2019-02-17T12:39:18.125Z,76.52
2019-02-17T12:41:47.578Z,76.74
2019-02-17T12:44:16.845Z,76.44
2019-02-17T12:46:46.419Z,76.63
2019-02-17T12:49:15.782Z,76.86
2019-02-17T12:51:45.182Z,77.28
2019-02-17T12:54:14.522Z,77.38
2019-02-17T12:56:43.871Z,76.41
2019-02-17T12:59:13.263Z,76.04
2019-02-17T13:01:42.637Z,75.36
2019-02-17T13:04:11.940Z,75.16
2019-02-17T13:06:41.245Z,75.24
2019-02-17T13:09:10.952Z,74.34
2019-02-17T13:11:40.432Z,74.14
2019-02-17T13:14:09.719Z,74.50
2019-02-17T13:16:39.166Z,74.84
2019-02-17T13:19:08.416Z,74.58
2019-02-17T13:21:37.677Z,75.29
2019-02-17T13:24:07.326Z,75.31
2019-02-17T13:26:36.649Z,75.34
2019-02-17T13:29:05.962Z,75.71
2019-02-17T13:31:35.411Z,75.43
2019-02-17T13:34:04.750Z,75.23
2019-02-17T13:36:34.009Z,75.31
2019-02-17T13:39:03.606Z,75.53
2019-02-17T13:41:33.035Z,75.43
2019-02-17T13:44:02.332Z,75.32
2019-02-17T13:46:31.769Z,75.33
2019-02-17T13:49:01.116Z,76.23
2019-02-17T13:51:30.486Z,76.54
2019-02-17T13:53:59.872Z,77.03
2019-02-17T13:56:29.234Z,76.71
2019-02-17T13:58:58.531Z,76.46
2019-02-17T14:01:28.078Z,76.75
2019-02-17T14:03:57.571Z,77.06
2019-02-17T14:06:26.839Z,77.31
2019-02-17T14:08:56.230Z,77.64
2019-02-17T14:11:25.523Z,78.02
2019-02-17T14:13:54.871Z,78.62
2019-02-17T14:16:24.299Z,79.12
2019-02-17T14:18:53.616Z,79.55
2019-02-17T14:21:22.896Z,79.93
2019-02-17T14:23:52.282Z,80.35
2019-02-17T14:26:21.652Z,80.35
2019-02-17T14:28:51.296Z,80.28
2019-02-17T14:31:20.660Z,80.28
2019-02-17T14:33:58.254Z,80.58
2019-02-17T14:36:21.054Z,80.80
2019-02-17T14:38:50.423Z,81.32
2019-02-17T14:41:19.756Z,81.41
2019-02-17T14:43:49.136Z,81.36
2019-02-17T14:46:18.410Z,81.30
2019-02-17T14:48:48.008Z,81.11
2019-02-17T14:51:17.504Z,80.83
2019-02-17T14:53:46.777Z,80.69
2019-02-17T14:56:16.131Z,80.64
2019-02-17T14:58:45.490Z,80.61
2019-02-17T15:01:14.772Z,80.54
2019-02-17T15:03:44.091Z,80.63
2019-02-17T15:06:13.408Z,78.87
2019-02-17T15:08:42.679Z,79.17
2019-02-17T15:11:11.994Z,79.68
2019-02-17T15:13:41.344Z,79.84
2019-02-17T15:16:10.617Z,80.24
2019-02-17T15:18:39.937Z,80.51
2019-02-17T15:21:09.498Z,80.85
2019-02-17T15:23:40.751Z,80.73
2019-02-17T15:26:10.040Z,81.36
2019-02-17T15:28:40.061Z,81.30
2019-02-17T15:31:09.399Z,81.32
2019-02-17T15:33:38.825Z,81.71
2019-02-17T15:36:08.198Z,81.38
2019-02-17T15:38:37.491Z,81.46
2019-02-17T15:41:06.922Z,81.61
2019-02-17T15:43:36.279Z,81.55
2019-02-17T15:46:05.637Z,81.63
2019-02-17T15:48:35.186Z,81.69
2019-02-17T15:51:06.736Z,82.30
2019-02-17T15:53:35.532Z,82.49
2019-02-17T15:56:04.892Z,82.51
2019-02-17T15:58:34.283Z,82.77
2019-02-17T16:01:03.755Z,83.25
2019-02-17T16:03:33.093Z,83.57
2019-02-17T16:06:02.407Z,83.71
2019-02-17T16:08:31.716Z,84.10
2019-02-17T16:11:01.230Z,84.61
2019-02-17T16:13:30.502Z,85.05
2019-02-17T16:15:59.822Z,85.56
2019-02-17T16:18:29.189Z,85.86
2019-02-17T16:20:58.463Z,86.35
2019-02-17T16:23:27.836Z,86.27
2019-02-17T16:25:57.270Z,86.39
2019-02-17T16:28:26.727Z,86.53
2019-02-17T16:30:56.013Z,86.52
2019-02-17T16:33:25.538Z,86.64
2019-02-17T16:35:54.850Z,86.54
2019-02-17T16:38:24.176Z,86.56
2019-02-17T16:40:53.574Z,86.73
2019-02-17T16:43:22.858Z,86.02
2019-02-17T16:45:52.119Z,86.03
2019-02-17T16:48:21.440Z,86.33
2019-02-17T16:50:50.789Z,86.83
2019-02-17T16:53:20.072Z,87.01
2019-02-17T16:55:49.441Z,87.17
2019-02-17T16:58:18.773Z,87.14
2019-02-17T17:00:48.171Z,87.46
2019-02-17T17:03:17.638Z,87.49
2019-02-17T17:05:46.908Z,87.41
2019-02-17T17:08:16.478Z,88.06
2019-02-17T17:10:46.024Z,88.62
2019-02-17T17:13:15.282Z,88.96
2019-02-17T17:15:44.632Z,89.37
2019-02-17T17:18:14.030Z,89.30
2019-02-17T17:20:43.461Z,89.16
2019-02-17T17:23:12.882Z,88.72
2019-02-17T17:25:42.498Z,88.19
2019-02-17T17:28:11.888Z,88.21
2019-02-17T17:30:42.078Z,88.15
2019-02-17T17:33:11.382Z,88.36
2019-02-17T17:35:40.737Z,88.50
2019-02-17T17:38:11.041Z,89.01
2019-02-17T17:40:40.506Z,89.19
2019-02-17T17:43:09.772Z,89.47
2019-02-17T17:45:39.071Z,89.57
2019-02-17T17:48:08.537Z,89.99
2019-02-17T17:50:37.917Z,89.80
2019-02-17T17:53:07.184Z,89.64
2019-02-17T17:55:36.813Z,89.78
2019-02-17T17:58:06.118Z,90.06
2019-02-17T18:00:36.282Z,90.24
2019-02-17T18:03:05.827Z,90.69
2019-02-17T18:05:35.206Z,91.10
2019-02-17T18:08:04.552Z,91.01
2019-02-17T18:10:33.991Z,91.13
2019-02-17T18:13:03.342Z,91.25
2019-02-17T18:15:32.730Z,91.29
2019-02-17T18:18:02.065Z,91.59
2019-02-17T18:20:31.417Z,92.10
2019-02-17T18:23:00.749Z,92.36
2019-02-17T18:25:30.122Z,92.35
2019-02-17T18:27:59.430Z,92.36
2019-02-17T18:30:28.691Z,92.55
2019-02-17T18:32:58.107Z,92.71
2019-02-17T18:35:27.387Z,92.80
2019-02-17T18:37:56.801Z,92.73
2019-02-17T18:40:26.356Z,92.80
2019-02-17T18:42:55.652Z,93.22
2019-02-17T18:45:24.958Z,93.28
2019-02-17T18:47:54.405Z,93.43
2019-02-17T18:50:23.758Z,93.41
2019-02-17T18:52:53.042Z,93.92
2019-02-17T18:55:22.354Z,94.57
2019-02-17T18:57:51.691Z,94.61
2019-02-17T19:00:21.020Z,94.53
2019-02-17T19:02:50.404Z,94.35
2019-02-17T19:05:24.612Z,94.40
2019-02-17T19:07:50.974Z,94.84
2019-02-17T19:10:20.344Z,95.05
2019-02-17T19:12:49.666Z,94.87
2019-02-17T19:15:19.172Z,94.78
2019-02-17T19:17:48.535Z,95.05
2019-02-17T19:20:18.904Z,95.04
2019-02-17T19:22:48.444Z,94.88
2019-02-17T19:25:17.745Z,94.65
2019-02-17T19:27:47.118Z,94.57
2019-02-17T19:30:16.759Z,94.63
2019-02-17T19:32:46.226Z,95.05
2019-02-17T19:35:15.634Z,95.35
2019-02-17T19:37:45.015Z,95.42
2019-02-17T19:40:14.567Z,95.50
2019-02-17T19:42:43.830Z,95.59
2019-02-17T19:45:13.820Z,95.89
2019-02-17T19:47:43.166Z,95.75
2019-02-17T19:50:12.746Z,95.95
2019-02-17T19:52:42.132Z,95.97
2019-02-17T19:55:11.850Z,95.96
2019-02-17T19:57:41.159Z,95.89
2019-02-17T20:00:12.510Z,95.85
2019-02-17T20:02:55.051Z,95.83
2019-02-17T20:05:26.831Z,95.85
2019-02-17T20:07:56.093Z,95.85
2019-02-17T20:10:25.399Z,95.94
2019-02-17T20:12:54.950Z,95.99
2019-02-17T20:15:26.039Z,96.04
2019-02-17T20:17:55.396Z,96.00
2019-02-17T20:20:24.812Z,96.10
2019-02-17T20:22:54.155Z,96.09
2019-02-17T20:25:23.433Z,96.16
2019-02-17T20:27:52.843Z,96.21
2019-02-17T20:30:22.157Z,96.26
2019-02-17T20:32:51.484Z,96.28
2019-02-17T20:35:21.028Z,96.29
2019-02-17T20:37:50.298Z,96.35
2019-02-17T20:40:19.633Z,96.35
2019-02-17T20:42:49.127Z,96.37
2019-02-17T20:45:18.542Z,96.43
2019-02-17T20:47:48.000Z,96.39
2019-02-17T20:50:17.510Z,96.43
2019-02-17T20:52:46.833Z,96.45
2019-02-17T20:55:16.273Z,96.45
2019-02-17T20:57:45.708Z,96.50
2019-02-17T21:00:15.036Z,96.52
2019-02-17T21:02:44.321Z,96.55
2019-02-17T21:05:13.945Z,96.42
2019-02-17T21:07:43.264Z,96.31
2019-02-17T21:10:12.695Z,96.33
2019-02-17T21:12:42.016Z,96.37
2019-02-17T21:15:12.303Z,96.38
2019-02-17T21:17:41.590Z,96.34
2019-02-17T21:20:11.098Z,96.36
2019-02-17T21:22:40.438Z,96.35
2019-02-17T21:25:10.101Z,96.27
2019-02-17T21:27:39.555Z,96.22
2019-02-17T21:30:09.071Z,96.17
2019-02-17T21:32:38.460Z,96.12
2019-02-17T21:35:09.744Z,96.09
2019-02-17T21:37:39.108Z,96.09
2019-02-17T21:40:09.875Z,96.06
2019-02-17T21:42:39.156Z,96.11
2019-02-17T21:45:10.024Z,96.18
2019-02-17T21:47:39.427Z,96.18
2019-02-17T21:50:09.878Z,96.08
2019-02-17T21:52:41.647Z,96.00
2019-02-17T21:55:10.850Z,95.95
2019-02-17T21:57:40.142Z,95.82
2019-02-17T22:00:13.142Z,95.79
2019-02-17T22:02:42.489Z,95.81
2019-02-17T22:05:11.932Z,95.88
2019-02-17T22:07:41.343Z,95.99
2019-02-17T22:10:11.293Z,96.13
2019-02-17T22:12:40.964Z,96.23
2019-02-17T22:15:12.354Z,96.38
2019-02-17T22:17:41.830Z,96.45
2019-02-17T22:20:11.556Z,96.53
2019-02-17T22:22:41.218Z,96.49
2019-02-17T22:25:10.720Z,96.47
2019-02-17T22:27:40.147Z,96.55
2019-02-17T22:30:10.037Z,96.62
2019-02-17T22:32:39.455Z,96.67
2019-02-17T22:35:08.940Z,96.66
2019-02-17T22:37:38.537Z,96.74
2019-02-17T22:40:08.575Z,96.69
2019-02-17T22:42:37.928Z,96.69
2019-02-17T22:45:07.885Z,96.68
2019-02-17T22:47:37.376Z,96.66
2019-02-17T22:50:07.747Z,96.66
2019-02-17T22:52:37.172Z,96.67
2019-02-17T22:55:07.257Z,96.65
2019-02-17T22:57:36.666Z,96.72
2019-02-17T23:00:12.190Z,96.74
2019-02-17T23:02:41.532Z,96.79
2019-02-17T23:05:10.781Z,96.78
2019-02-17T23:07:40.137Z,96.77
2019-02-17T23:10:11.256Z,96.81
2019-02-17T23:12:40.495Z,96.87
2019-02-17T23:15:09.862Z,96.89
2019-02-17T23:17:39.517Z,96.86
2019-02-17T23:20:08.866Z,96.75
2019-02-17T23:22:38.321Z,96.79
2019-02-17T23:25:08.098Z,96.81
2019-02-17T23:27:37.332Z,96.80
2019-02-17T23:30:06.901Z,96.80
2019-02-17T23:32:36.132Z,96.80
2019-02-17T23:35:05.824Z,96.82
